createdAt,value
2017-09-28T00:00:50.653Z,72.87
2017-09-28T00:03:19.067Z,76.53
2017-09-28T00:05:47.458Z,90.93
2017-09-28T00:08:15.938Z,78.50
2017-09-28T00:10:44.360Z,80.50
2017-09-28T00:13:12.734Z,85.43
2017-09-28T00:15:42.958Z,80.23
2017-09-28T00:18:11.400Z,93.97
2017-09-28T00:20:40.914Z,96.77
2017-09-28T00:23:09.509Z,133.30
2017-09-28T00:25:38.647Z,267.10
2017-09-28T00:28:07.799Z,235.40
2017-09-28T00:30:37.126Z,157.77
2017-09-28T00:33:05.545Z,108.23
2017-09-28T00:35:35.965Z,99.97
2017-09-28T00:38:04.792Z,79.03
2017-09-28T00:40:33.139Z,86.20
2017-09-28T00:43:01.492Z,73.60
2017-09-28T00:45:29.962Z,108.87
2017-09-28T00:47:58.660Z,86.97
2017-09-28T00:50:27.851Z,88.53
2017-09-28T00:52:57.777Z,105.10
2017-09-28T00:55:26.908Z,127.17
2017-09-28T00:57:55.225Z,92.27
2017-09-28T01:00:24.391Z,80.47
2017-09-28T01:02:52.732Z,123.63
2017-09-28T01:05:21.062Z,96.83
2017-09-28T01:07:49.711Z,118.30
2017-09-28T01:10:18.089Z,96.60
2017-09-28T01:12:46.514Z,111.77
2017-09-28T01:15:15.782Z,123.00
2017-09-28T01:17:44.126Z,122.77
2017-09-28T01:20:12.493Z,108.07
2017-09-28T01:22:41.002Z,88.73
2017-09-28T01:25:09.376Z,83.27
2017-09-28T01:27:37.753Z,81.90
2017-09-28T01:30:06.264Z,83.67
2017-09-28T01:32:34.596Z,73.37
2017-09-28T01:35:02.967Z,80.50
2017-09-28T01:37:32.189Z,79.37
2017-09-28T01:40:00.511Z,76.77
2017-09-28T01:42:28.873Z,69.30
2017-09-28T01:44:58.033Z,83.80
2017-09-28T01:47:26.430Z,75.97
2017-09-28T01:49:55.189Z,62.90
2017-09-28T01:52:23.552Z,73.60
2017-09-28T01:54:52.687Z,86.97
2017-09-28T01:57:21.450Z,66.37
2017-09-28T01:59:49.965Z,73.60
2017-09-28T02:02:18.495Z,64.03
2017-09-28T02:04:47.645Z,83.27
2017-09-28T02:07:16.229Z,91.53
2017-09-28T02:09:44.568Z,58.17
2017-09-28T02:12:12.916Z,59.03
2017-09-28T02:14:41.297Z,58.63
2017-09-28T02:17:09.636Z,57.80
2017-09-28T02:19:37.990Z,54.07
2017-09-28T02:22:06.337Z,55.40
2017-09-28T02:24:34.657Z,48.63
2017-09-28T02:27:03.034Z,49.00
2017-09-28T02:29:31.544Z,56.20
2017-09-28T02:31:59.885Z,47.70
2017-09-28T02:34:28.209Z,47.43
2017-09-28T02:36:56.692Z,51.57
2017-09-28T02:39:25.013Z,56.20
2017-09-28T02:41:53.342Z,60.47
2017-09-28T02:44:21.986Z,47.13
2017-09-28T02:46:50.301Z,50.40
2017-09-28T02:49:18.635Z,51.60
2017-09-28T02:51:47.297Z,49.77
2017-09-28T02:54:16.373Z,47.23
2017-09-28T02:56:44.783Z,50.63
2017-09-28T02:59:13.481Z,58.43
2017-09-28T03:01:41.813Z,55.00
2017-09-28T03:04:10.160Z,51.63
2017-09-28T03:06:38.528Z,52.80
2017-09-28T03:09:06.855Z,54.30
2017-09-28T03:11:35.185Z,59.13
2017-09-28T03:14:03.676Z,49.00
2017-09-28T03:16:32.063Z,51.10
2017-09-28T03:19:00.410Z,47.07
2017-09-28T03:21:28.824Z,44.90
2017-09-28T03:23:57.149Z,46.40
2017-09-28T03:26:26.247Z,43.17
2017-09-28T03:28:54.615Z,54.30
2017-09-28T03:31:23.707Z,37.10
2017-09-28T03:33:52.797Z,46.13
2017-09-28T03:36:21.169Z,48.47
2017-09-28T03:38:49.533Z,45.03
2017-09-28T03:41:17.892Z,43.57
2017-09-28T03:43:46.340Z,48.00
2017-09-28T03:46:14.820Z,46.30
2017-09-28T03:48:43.149Z,50.53
2017-09-28T03:51:11.642Z,57.40
2017-09-28T03:53:40.250Z,59.60
2017-09-28T03:56:09.354Z,51.57
2017-09-28T03:58:38.556Z,45.43
2017-09-28T04:01:06.891Z,41.60
2017-09-28T04:03:35.239Z,43.43
2017-09-28T04:06:04.102Z,58.33
2017-09-28T04:08:32.425Z,56.10
2017-09-28T04:11:00.760Z,53.63
2017-09-28T04:13:29.266Z,50.17
2017-09-28T04:15:57.588Z,51.93
2017-09-28T04:18:26.705Z,46.23
2017-09-28T04:20:55.216Z,49.50
2017-09-28T04:23:23.567Z,41.70
2017-09-28T04:25:51.924Z,42.83
2017-09-28T04:28:21.177Z,46.63
2017-09-28T04:30:49.721Z,47.90
2017-09-28T04:33:18.060Z,49.53
2017-09-28T04:35:46.570Z,43.13
2017-09-28T04:38:15.664Z,56.90
2017-09-28T04:40:44.749Z,43.27
2017-09-28T04:43:13.135Z,40.97
2017-09-28T04:45:42.231Z,48.77
2017-09-28T04:48:11.363Z,49.73
2017-09-28T04:50:40.128Z,75.20
2017-09-28T04:53:09.229Z,68.90
2017-09-28T04:55:38.731Z,50.03
2017-09-28T04:58:07.989Z,61.33
2017-09-28T05:00:36.324Z,54.97
2017-09-28T05:03:04.720Z,45.07
2017-09-28T05:05:34.525Z,50.20
2017-09-28T05:08:02.880Z,43.80
2017-09-28T05:10:31.974Z,35.97
2017-09-28T05:13:00.625Z,40.90
2017-09-28T05:15:28.990Z,40.47
2017-09-28T05:17:57.335Z,41.03
2017-09-28T05:20:25.771Z,38.70
2017-09-28T05:22:54.114Z,38.60
2017-09-28T05:25:22.493Z,43.53
2017-09-28T05:27:50.850Z,43.23
2017-09-28T05:30:19.224Z,39.33
2017-09-28T05:32:49.338Z,49.50
2017-09-28T05:35:17.849Z,59.43
2017-09-28T05:37:46.219Z,47.63
2017-09-28T05:40:14.593Z,50.30
2017-09-28T05:42:43.100Z,39.77
2017-09-28T05:45:11.708Z,48.40
2017-09-28T05:47:40.057Z,49.50
2017-09-28T05:50:08.460Z,48.57
2017-09-28T05:52:36.821Z,55.17
2017-09-28T05:55:05.725Z,55.13
2017-09-28T05:57:34.229Z,58.97
2017-09-28T06:00:02.674Z,60.40
2017-09-28T06:02:30.997Z,53.60
2017-09-28T06:04:59.369Z,65.20
2017-09-28T06:07:28.457Z,63.67
2017-09-28T06:09:57.771Z,56.43
2017-09-28T06:12:26.147Z,62.03
2017-09-28T06:14:54.507Z,55.93
2017-09-28T06:17:23.606Z,62.37
2017-09-28T06:19:52.872Z,65.43
2017-09-28T06:22:22.163Z,65.70
2017-09-28T06:24:50.494Z,66.73
2017-09-28T06:27:19.796Z,71.83
2017-09-28T06:29:48.903Z,88.73
2017-09-28T06:32:18.002Z,83.13
2017-09-28T06:34:46.651Z,58.87
2017-09-28T06:37:15.923Z,66.60
2017-09-28T06:39:44.309Z,64.37
2017-09-28T06:42:13.641Z,64.93
2017-09-28T06:44:42.745Z,64.10
2017-09-28T06:47:11.521Z,78.10
2017-09-28T06:49:40.813Z,68.07
2017-09-28T06:52:09.217Z,88.20
2017-09-28T06:54:37.591Z,78.77
2017-09-28T06:57:06.889Z,71.87
2017-09-28T06:59:36.572Z,67.77
2017-09-28T07:02:04.991Z,65.43
2017-09-28T07:04:33.437Z,62.47
2017-09-28T07:07:01.792Z,47.73
2017-09-28T07:09:30.170Z,48.57
2017-09-28T07:11:58.549Z,64.73
2017-09-28T07:14:27.029Z,59.87
2017-09-28T07:16:55.422Z,60.93
2017-09-28T07:19:24.030Z,59.97
2017-09-28T07:21:53.201Z,69.50
2017-09-28T07:24:21.797Z,67.67
2017-09-28T07:26:50.989Z,66.33
2017-09-28T07:29:19.388Z,58.40
2017-09-28T07:31:48.651Z,58.03
2017-09-28T07:34:17.386Z,50.63
2017-09-28T07:36:45.801Z,63.70
2017-09-28T07:39:14.142Z,56.90
2017-09-28T07:41:43.404Z,54.00
2017-09-28T07:44:11.757Z,54.80
2017-09-28T07:46:40.094Z,52.70
2017-09-28T07:49:08.667Z,59.53
2017-09-28T07:51:37.807Z,63.93
2017-09-28T07:54:06.149Z,71.03
2017-09-28T07:56:34.779Z,63.60
2017-09-28T07:59:03.134Z,60.57
2017-09-28T08:01:31.592Z,53.67
2017-09-28T08:04:00.842Z,61.47
2017-09-28T08:06:29.223Z,44.97
2017-09-28T08:08:57.759Z,48.00
2017-09-28T08:11:27.770Z,41.60
2017-09-28T08:13:56.290Z,51.80
2017-09-28T08:16:24.673Z,39.20
2017-09-28T08:18:53.862Z,36.03
2017-09-28T08:21:22.387Z,35.67
2017-09-28T08:23:52.331Z,34.03
2017-09-28T08:26:21.058Z,33.40
2017-09-28T08:28:49.527Z,33.53
2017-09-28T08:31:17.906Z,36.33
2017-09-28T08:33:46.309Z,42.37
2017-09-28T08:36:14.711Z,41.13
2017-09-28T08:38:44.341Z,45.20
2017-09-28T08:41:12.826Z,43.53
2017-09-28T08:43:41.940Z,42.60
2017-09-28T08:46:10.418Z,41.50
2017-09-28T08:48:39.950Z,44.67
2017-09-28T08:51:08.493Z,45.00
2017-09-28T08:53:36.881Z,41.37
2017-09-28T08:56:05.321Z,41.67
2017-09-28T08:58:33.656Z,41.57
2017-09-28T09:01:02.060Z,35.87
2017-09-28T09:03:31.566Z,40.20
2017-09-28T09:05:59.912Z,46.47
2017-09-28T09:08:28.297Z,53.80
2017-09-28T09:10:56.877Z,41.27
2017-09-28T09:13:25.273Z,43.00
2017-09-28T09:15:53.624Z,37.00
2017-09-28T09:18:22.530Z,41.90
2017-09-28T09:20:50.956Z,41.77
2017-09-28T09:23:20.083Z,42.80
2017-09-28T09:25:48.547Z,41.60
2017-09-28T09:28:17.071Z,40.40
2017-09-28T09:30:45.442Z,37.07
2017-09-28T09:33:14.042Z,39.80
2017-09-28T09:35:42.462Z,35.87
2017-09-28T09:38:11.589Z,35.80
2017-09-28T09:40:40.417Z,35.57
2017-09-28T09:43:08.753Z,41.13
2017-09-28T09:45:37.123Z,33.60
2017-09-28T09:48:05.601Z,36.37
2017-09-28T09:50:33.968Z,36.83
2017-09-28T09:53:02.624Z,35.40
2017-09-28T09:55:31.019Z,41.30
2017-09-28T09:57:59.388Z,37.27
2017-09-28T10:00:27.737Z,35.47
2017-09-28T10:02:56.184Z,36.13
2017-09-28T10:05:24.779Z,32.10
2017-09-28T10:08:05.803Z,30.80
2017-09-28T10:10:41.023Z,32.87
2017-09-28T10:13:17.182Z,40.10
2017-09-28T10:15:50.671Z,31.60
2017-09-28T10:18:20.158Z,37.90
2017-09-28T10:20:48.607Z,31.70
2017-09-28T10:23:16.997Z,31.43
2017-09-28T10:25:45.405Z,34.10
2017-09-28T10:28:14.566Z,30.07
2017-09-28T10:30:42.951Z,32.17
2017-09-28T10:33:12.255Z,35.10
2017-09-28T10:35:41.509Z,31.10
2017-09-28T10:38:09.885Z,32.57
2017-09-28T10:40:39.083Z,36.53
2017-09-28T10:43:07.490Z,34.30
2017-09-28T10:45:36.010Z,38.33
2017-09-28T10:48:05.188Z,36.60
2017-09-28T10:50:33.607Z,36.83
2017-09-28T10:53:02.957Z,31.23
2017-09-28T10:55:31.409Z,30.20
2017-09-28T10:57:59.777Z,39.20
2017-09-28T11:00:29.150Z,32.50
2017-09-28T11:02:58.345Z,33.87
2017-09-28T11:05:28.724Z,34.97
2017-09-28T11:07:57.124Z,39.00
2017-09-28T11:10:27.006Z,31.03
2017-09-28T11:12:55.736Z,27.97
2017-09-28T11:15:24.415Z,34.60
2017-09-28T11:17:57.571Z,47.57
2017-09-28T11:20:28.070Z,40.20
2017-09-28T11:22:56.534Z,32.37
2017-09-28T11:25:24.969Z,34.00
2017-09-28T11:27:53.398Z,40.10
2017-09-28T11:30:21.845Z,35.20
2017-09-28T11:32:52.196Z,36.60
2017-09-28T11:35:20.580Z,33.10
2017-09-28T11:37:48.954Z,40.00
2017-09-28T11:40:17.490Z,33.90
2017-09-28T11:42:45.905Z,39.53
2017-09-28T11:45:14.294Z,36.43
2017-09-28T11:47:42.747Z,37.60
2017-09-28T11:50:11.974Z,31.90
2017-09-28T11:52:40.367Z,37.23
2017-09-28T11:55:09.176Z,41.97
2017-09-28T11:57:37.601Z,35.33
2017-09-28T12:00:05.948Z,31.23
2017-09-28T12:02:34.337Z,32.27
2017-09-28T12:05:03.500Z,28.77
2017-09-28T12:07:32.855Z,31.43
2017-09-28T12:10:02.888Z,35.23
2017-09-28T12:12:31.250Z,34.70
2017-09-28T12:14:59.676Z,35.50
2017-09-28T12:17:28.242Z,34.37
2017-09-28T12:19:56.669Z,34.10
2017-09-28T12:22:25.142Z,33.60
2017-09-28T12:24:53.665Z,33.30
2017-09-28T12:27:22.851Z,31.73
2017-09-28T12:29:51.987Z,28.43
2017-09-28T12:32:20.544Z,29.87
2017-09-28T12:34:48.907Z,34.00
2017-09-28T12:37:18.249Z,35.47
2017-09-28T12:39:47.117Z,33.13
2017-09-28T12:42:15.512Z,33.17
2017-09-28T12:44:44.029Z,32.20
2017-09-28T12:47:12.584Z,31.53
2017-09-28T12:49:42.049Z,34.03
2017-09-28T12:52:11.147Z,31.00
2017-09-28T12:54:39.645Z,34.73
2017-09-28T12:57:08.196Z,30.83
2017-09-28T12:59:36.560Z,28.60
2017-09-28T13:02:05.096Z,31.10
2017-09-28T13:04:33.550Z,28.53
2017-09-28T13:07:02.106Z,29.17
2017-09-28T13:09:31.591Z,34.60
2017-09-28T13:11:59.965Z,33.87
2017-09-28T13:14:29.009Z,27.50
2017-09-28T13:16:57.449Z,31.47
2017-09-28T13:19:25.872Z,31.47
2017-09-28T13:21:54.310Z,31.10
2017-09-28T13:24:22.710Z,29.63
2017-09-28T13:26:51.077Z,30.93
2017-09-28T13:29:19.480Z,33.63
2017-09-28T13:31:48.769Z,30.27
2017-09-28T13:34:17.163Z,29.37
2017-09-28T13:36:45.539Z,30.93
2017-09-28T13:39:14.814Z,29.23
2017-09-28T13:41:43.196Z,32.60
2017-09-28T13:44:11.577Z,36.37
2017-09-28T13:46:41.521Z,33.70
2017-09-28T13:49:09.947Z,30.37
2017-09-28T13:51:38.378Z,28.67
2017-09-28T13:54:06.931Z,36.33
2017-09-28T13:56:35.325Z,35.13
2017-09-28T13:59:04.637Z,28.00
2017-09-28T14:01:32.989Z,32.23
2017-09-28T14:04:01.361Z,32.67
2017-09-28T14:06:29.706Z,23.87
2017-09-28T14:08:58.232Z,27.50
2017-09-28T14:11:26.706Z,35.97
2017-09-28T14:13:55.092Z,36.67
2017-09-28T14:16:23.767Z,33.47
2017-09-28T14:18:53.068Z,37.73
2017-09-28T14:21:21.491Z,30.70
2017-09-28T14:23:50.397Z,33.43
2017-09-28T14:26:18.836Z,39.93
2017-09-28T14:28:47.323Z,42.67
2017-09-28T14:31:15.767Z,34.50
2017-09-28T14:33:44.258Z,36.73
2017-09-28T14:36:14.747Z,43.53
2017-09-28T14:38:43.404Z,40.53
2017-09-28T14:41:12.517Z,31.57
2017-09-28T14:43:40.899Z,38.40
2017-09-28T14:46:09.434Z,41.10
2017-09-28T14:48:38.856Z,33.13
2017-09-28T14:51:07.276Z,31.87
2017-09-28T14:53:35.701Z,30.90
2017-09-28T14:56:04.864Z,32.97
2017-09-28T14:58:34.181Z,32.30
2017-09-28T15:01:02.754Z,32.00
2017-09-28T15:03:31.095Z,29.47
2017-09-28T15:05:59.583Z,31.70
2017-09-28T15:08:28.925Z,34.90
2017-09-28T15:10:57.377Z,30.60
2017-09-28T15:13:26.097Z,31.73
2017-09-28T15:15:54.458Z,30.73
2017-09-28T15:18:22.877Z,34.03
2017-09-28T15:20:52.045Z,31.40
2017-09-28T15:23:21.501Z,35.40
2017-09-28T15:25:49.899Z,35.13
2017-09-28T15:28:18.255Z,31.47
2017-09-28T15:30:46.777Z,33.33
2017-09-28T15:33:15.286Z,35.47
2017-09-28T15:35:44.573Z,31.50
2017-09-28T15:38:13.560Z,36.40
2017-09-28T15:40:41.952Z,32.90
2017-09-28T15:43:10.341Z,39.73
2017-09-28T15:45:39.484Z,37.37
2017-09-28T15:48:07.962Z,31.67
2017-09-28T15:50:36.405Z,36.57
2017-09-28T15:53:07.130Z,38.07
2017-09-28T15:55:35.589Z,34.17
2017-09-28T15:58:03.931Z,35.90
2017-09-28T16:00:33.163Z,32.47
2017-09-28T16:03:03.076Z,32.50
2017-09-28T16:05:31.502Z,34.03
2017-09-28T16:08:00.914Z,32.00
2017-09-28T16:10:30.316Z,38.70
2017-09-28T16:12:58.706Z,33.70
2017-09-28T16:15:27.429Z,41.17
2017-09-28T16:17:55.845Z,51.03
2017-09-28T16:20:24.213Z,31.60
2017-09-28T16:22:52.844Z,32.30
2017-09-28T16:25:22.726Z,29.57
2017-09-28T16:27:51.127Z,34.60
2017-09-28T16:30:19.642Z,31.80
2017-09-28T16:32:48.146Z,34.47
2017-09-28T16:35:16.479Z,34.60
2017-09-28T16:37:45.334Z,35.70
2017-09-28T16:40:13.792Z,32.80
2017-09-28T16:42:43.794Z,36.87
2017-09-28T16:45:12.168Z,34.17
2017-09-28T16:47:40.531Z,31.77
2017-09-28T16:50:08.905Z,29.80
2017-09-28T16:52:37.516Z,34.23
2017-09-28T16:55:07.565Z,29.90
2017-09-28T16:57:36.924Z,34.93
2017-09-28T17:00:05.640Z,25.07
2017-09-28T17:02:34.953Z,26.57
2017-09-28T17:05:04.470Z,25.20
2017-09-28T17:07:33.823Z,30.37
2017-09-28T17:10:02.205Z,26.70
2017-09-28T17:12:31.037Z,26.57
2017-09-28T17:14:59.770Z,22.70
2017-09-28T17:17:28.451Z,38.43
2017-09-28T17:19:57.166Z,28.17
2017-09-28T17:22:25.626Z,28.10
2017-09-28T17:24:54.069Z,25.30
2017-09-28T17:27:22.454Z,28.60
2017-09-28T17:29:50.983Z,24.90
2017-09-28T17:32:19.333Z,25.73
2017-09-28T17:34:48.532Z,29.10
2017-09-28T17:37:18.504Z,24.30
2017-09-28T17:39:48.012Z,28.00
2017-09-28T17:42:18.030Z,25.10
2017-09-28T17:44:46.462Z,25.40
2017-09-28T17:47:14.875Z,27.73
2017-09-28T17:49:43.269Z,32.77
2017-09-28T17:52:11.788Z,32.13
2017-09-28T17:54:41.037Z,29.23
2017-09-28T17:57:09.466Z,31.87
2017-09-28T17:59:38.679Z,27.30
2017-09-28T18:02:07.077Z,30.53
2017-09-28T18:04:36.201Z,41.53
2017-09-28T18:07:04.987Z,39.10
2017-09-28T18:09:33.400Z,34.23
2017-09-28T18:12:02.687Z,28.70
2017-09-28T18:14:31.136Z,28.83
2017-09-28T18:16:59.580Z,26.57
2017-09-28T18:19:28.116Z,37.03
2017-09-28T18:21:56.617Z,33.00
2017-09-28T18:24:24.993Z,26.13
2017-09-28T18:26:54.847Z,30.27
2017-09-28T18:29:23.203Z,27.63
2017-09-28T18:31:51.634Z,31.90
2017-09-28T18:34:19.988Z,28.17
2017-09-28T18:36:49.167Z,28.77
2017-09-28T18:39:18.073Z,28.67
2017-09-28T18:41:46.483Z,37.27
2017-09-28T18:44:14.857Z,27.83
2017-09-28T18:46:43.253Z,25.80
2017-09-28T18:49:11.642Z,35.00
2017-09-28T18:51:40.349Z,27.40
2017-09-28T18:54:09.487Z,24.23
2017-09-28T18:56:39.562Z,22.67
2017-09-28T18:59:08.089Z,27.23
2017-09-28T19:01:36.467Z,41.53
2017-09-28T19:04:05.782Z,25.47
2017-09-28T19:06:34.696Z,40.53
2017-09-28T19:09:03.785Z,26.13
2017-09-28T19:11:32.170Z,32.80
2017-09-28T19:14:00.861Z,25.80
2017-09-28T19:16:30.754Z,33.43
2017-09-28T19:18:59.222Z,29.17
2017-09-28T19:21:29.013Z,31.47
2017-09-28T19:23:57.433Z,29.43
2017-09-28T19:26:25.778Z,42.47
2017-09-28T19:28:54.975Z,26.90
2017-09-28T19:31:24.116Z,27.77
2017-09-28T19:33:52.745Z,31.37
2017-09-28T19:36:21.254Z,27.97
2017-09-28T19:38:49.582Z,29.37
2017-09-28T19:41:19.395Z,26.90
2017-09-28T19:43:47.801Z,31.10
2017-09-28T19:46:16.198Z,31.97
2017-09-28T19:48:45.310Z,26.43
2017-09-28T19:51:13.888Z,28.83
2017-09-28T19:53:42.227Z,27.77
2017-09-28T19:56:10.646Z,29.10
2017-09-28T19:58:39.051Z,25.03
2017-09-28T20:01:07.442Z,29.30
2017-09-28T20:03:35.805Z,31.63
2017-09-28T20:06:04.230Z,28.13
2017-09-28T20:08:32.635Z,27.83
2017-09-28T20:11:01.006Z,34.87
2017-09-28T20:13:29.673Z,31.77
2017-09-28T20:15:58.770Z,30.57
2017-09-28T20:18:27.889Z,28.90
2017-09-28T20:20:56.673Z,36.03
2017-09-28T20:23:26.041Z,35.70
2017-09-28T20:25:54.598Z,29.97
2017-09-28T20:28:22.967Z,32.53
2017-09-28T20:30:51.307Z,29.33
2017-09-28T20:33:20.414Z,32.83
2017-09-28T20:35:48.776Z,34.97
2017-09-28T20:38:17.369Z,29.00
2017-09-28T20:40:45.724Z,30.33
2017-09-28T20:43:14.287Z,27.37
2017-09-28T20:45:42.648Z,33.67
2017-09-28T20:48:11.005Z,33.90
2017-09-28T20:50:39.514Z,35.57
2017-09-28T20:53:07.925Z,31.23
2017-09-28T20:55:36.349Z,35.00
2017-09-28T20:58:04.876Z,33.77
2017-09-28T21:00:33.293Z,35.03
2017-09-28T21:03:01.730Z,34.93
2017-09-28T21:05:30.868Z,36.93
2017-09-28T21:07:59.276Z,40.20
2017-09-28T21:10:27.841Z,32.77
2017-09-28T21:12:57.200Z,31.63
2017-09-28T21:15:26.365Z,33.17
2017-09-28T21:17:56.953Z,32.30
2017-09-28T21:20:26.410Z,34.97
2017-09-28T21:22:56.333Z,34.93
2017-09-28T21:25:26.669Z,34.37
2017-09-28T21:27:57.295Z,34.57
2017-09-28T21:30:26.701Z,39.30
2017-09-28T21:32:55.084Z,32.70
2017-09-28T21:35:24.934Z,38.97
2017-09-28T21:37:55.198Z,30.63
2017-09-28T21:40:23.605Z,33.00
2017-09-28T21:42:53.517Z,39.97
2017-09-28T21:45:21.928Z,36.13
2017-09-28T21:47:50.753Z,31.23
2017-09-28T21:50:20.603Z,33.47
2017-09-28T21:52:50.319Z,35.00
2017-09-28T21:55:18.759Z,33.07
2017-09-28T21:57:47.488Z,33.37
2017-09-28T22:00:16.030Z,38.23
2017-09-28T22:02:44.617Z,41.63
2017-09-28T22:05:13.198Z,46.67
2017-09-28T22:07:42.419Z,35.50
2017-09-28T22:10:12.611Z,30.13
2017-09-28T22:12:42.251Z,38.90
2017-09-28T22:15:11.267Z,38.97
2017-09-28T22:17:41.411Z,39.33
2017-09-28T22:20:10.009Z,39.20
2017-09-28T22:22:40.025Z,40.27
2017-09-28T22:25:09.287Z,36.50
2017-09-28T22:27:40.251Z,45.27
2017-09-28T22:30:09.883Z,34.73
2017-09-28T22:32:39.077Z,41.33
2017-09-28T22:35:08.059Z,36.40
2017-09-28T22:37:36.703Z,35.77
2017-09-28T22:40:05.392Z,39.93
2017-09-28T22:42:34.873Z,44.87
2017-09-28T22:45:04.799Z,40.43
2017-09-28T22:47:33.211Z,44.17
2017-09-28T22:50:01.951Z,39.17
2017-09-28T22:52:32.411Z,42.43
2017-09-28T22:55:01.803Z,43.60
2017-09-28T22:57:31.083Z,44.50
2017-09-28T22:59:59.490Z,40.87
2017-09-28T23:02:29.679Z,42.70
2017-09-28T23:04:58.660Z,45.20
2017-09-28T23:07:27.021Z,46.30
2017-09-28T23:09:55.379Z,52.47
2017-09-28T23:12:23.921Z,46.00
2017-09-28T23:14:53.192Z,44.40
2017-09-28T23:17:21.525Z,47.20
2017-09-28T23:19:50.474Z,44.17
2017-09-28T23:22:18.871Z,45.40
2017-09-28T23:24:48.996Z,49.10
2017-09-28T23:27:18.257Z,51.83
2017-09-28T23:29:47.988Z,60.60
2017-09-28T23:32:17.101Z,49.83
2017-09-28T23:34:46.232Z,50.37
2017-09-28T23:37:14.557Z,56.87
2017-09-28T23:39:42.882Z,46.03
2017-09-28T23:42:11.384Z,55.37
2017-09-28T23:44:39.740Z,47.57
2017-09-28T23:47:08.074Z,51.60
2017-09-28T23:49:36.606Z,47.17
2017-09-28T23:52:05.062Z,45.40
2017-09-28T23:54:34.409Z,45.80
2017-09-28T23:57:03.833Z,55.13
2017-09-28T23:59:32.191Z,52.10
